createdAt,value
2023-04-12T00:00:39.401Z,5.50
2023-04-12T00:01:39.447Z,6.40
2023-04-12T00:02:39.732Z,5.10
2023-04-12T00:03:39.648Z,6.40
2023-04-12T00:04:39.464Z,6.70
2023-04-12T00:05:39.417Z,8.10
2023-04-12T00:06:39.334Z,4.70
2023-04-12T00:07:39.329Z,11.20
2023-04-12T00:08:39.355Z,6.50
2023-04-12T00:09:39.330Z,8.20
2023-04-12T00:10:39.283Z,6.00
2023-04-12T00:11:39.324Z,6.60
2023-04-12T00:12:39.283Z,6.90
2023-04-12T00:13:39.284Z,6.60
2023-04-12T00:14:39.260Z,7.00
2023-04-12T00:15:39.311Z,6.40
2023-04-12T00:16:39.225Z,6.20
2023-04-12T00:17:39.285Z,6.10
2023-04-12T00:18:39.224Z,5.80
2023-04-12T00:19:39.237Z,5.30
2023-04-12T00:20:39.187Z,6.60
2023-04-12T00:21:39.205Z,6.50
2023-04-12T00:22:39.161Z,5.90
2023-04-12T00:23:39.200Z,6.60
2023-04-12T00:24:39.163Z,9.10
2023-04-12T00:25:39.164Z,7.30
2023-04-12T00:26:39.120Z,6.00
2023-04-12T00:27:39.164Z,8.20
2023-04-12T00:28:39.083Z,7.70
2023-04-12T00:29:39.095Z,7.30
2023-04-12T00:30:39.081Z,10.90
2023-04-12T00:31:39.106Z,6.20
2023-04-12T00:32:39.094Z,6.80
2023-04-12T00:33:39.071Z,7.70
2023-04-12T00:34:39.000Z,7.80
2023-04-12T00:35:39.072Z,5.60
2023-04-12T00:36:39.046Z,6.10
2023-04-12T00:37:39.054Z,5.10
2023-04-12T00:38:39.016Z,8.60
2023-04-12T00:39:39.010Z,8.10
2023-04-12T00:40:38.941Z,7.50
2023-04-12T00:41:39.052Z,6.90
2023-04-12T00:42:38.995Z,5.90
2023-04-12T00:43:38.990Z,7.10
2023-04-12T00:44:38.887Z,7.60
2023-04-12T00:45:38.933Z,7.20
2023-04-12T00:46:38.933Z,6.20
2023-04-12T00:47:38.972Z,5.50
2023-04-12T00:48:38.903Z,6.50
2023-04-12T00:49:38.834Z,5.70
2023-04-12T00:50:38.891Z,6.20
2023-04-12T00:51:38.845Z,6.10
2023-04-12T00:52:38.820Z,5.40
2023-04-12T00:53:38.802Z,7.00
2023-04-12T00:54:38.844Z,6.00
2023-04-12T00:55:38.808Z,7.10
2023-04-12T00:56:38.766Z,5.30
2023-04-12T00:57:38.750Z,6.90
2023-04-12T00:58:38.790Z,6.30
2023-04-12T00:59:38.765Z,5.60
2023-04-12T01:00:38.781Z,6.90
2023-04-12T01:01:38.816Z,6.90
2023-04-12T01:02:38.801Z,5.10
2023-04-12T01:03:38.903Z,7.40
2023-04-12T01:04:38.711Z,6.60
2023-04-12T01:05:38.700Z,5.90
2023-04-12T01:06:38.713Z,8.00
2023-04-12T01:07:38.656Z,6.10
2023-04-12T01:08:38.622Z,6.90
2023-04-12T01:09:38.609Z,6.10
2023-04-12T01:10:38.623Z,6.30
2023-04-12T01:11:38.638Z,7.90
2023-04-12T01:12:38.600Z,6.60
2023-04-12T01:13:38.578Z,6.10
2023-04-12T01:14:38.582Z,7.10
2023-04-12T01:15:38.544Z,7.30
2023-04-12T01:16:38.643Z,6.10
2023-04-12T01:17:38.571Z,6.20
2023-04-12T01:18:38.529Z,5.80
2023-04-12T01:19:38.589Z,7.30
2023-04-12T01:20:38.509Z,6.80
2023-04-12T01:21:38.490Z,6.30
2023-04-12T01:22:38.527Z,6.70
2023-04-12T01:23:38.466Z,5.70
2023-04-12T01:24:38.532Z,7.30
2023-04-12T01:25:38.453Z,8.30
2023-04-12T01:26:38.493Z,5.80
2023-04-12T01:27:38.449Z,5.90
2023-04-12T01:28:38.417Z,5.00
2023-04-12T01:29:38.421Z,6.20
2023-04-12T01:30:38.382Z,5.80
2023-04-12T01:31:38.411Z,6.10
2023-04-12T01:32:38.458Z,6.10
2023-04-12T01:33:38.360Z,7.00
2023-04-12T01:34:38.329Z,8.50
2023-04-12T01:35:38.452Z,6.50
2023-04-12T01:36:38.302Z,7.00
2023-04-12T01:37:38.308Z,5.80
2023-04-12T01:38:38.338Z,6.50
2023-04-12T01:39:38.365Z,7.20
2023-04-12T01:40:38.267Z,8.70
2023-04-12T01:41:38.288Z,7.10
2023-04-12T01:42:38.273Z,6.50
2023-04-12T01:43:38.215Z,7.60
2023-04-12T01:44:38.259Z,6.70
2023-04-12T01:45:38.290Z,6.90
2023-04-12T01:46:38.210Z,5.70
2023-04-12T01:47:38.269Z,6.70
2023-04-12T01:48:38.230Z,7.40
2023-04-12T01:49:38.189Z,6.30
2023-04-12T01:50:38.184Z,6.40
2023-04-12T01:51:38.145Z,4.90
2023-04-12T01:52:38.152Z,5.70
2023-04-12T01:53:38.165Z,6.00
2023-04-12T01:54:38.136Z,6.00
2023-04-12T01:55:38.147Z,5.00
2023-04-12T01:56:39.566Z,8.30
2023-04-12T01:57:38.083Z,6.60
2023-04-12T01:58:38.117Z,6.70
2023-04-12T01:59:38.058Z,6.20
2023-04-12T02:00:38.048Z,5.50
2023-04-12T02:01:38.103Z,5.80
2023-04-12T02:02:38.187Z,5.60
2023-04-12T02:03:38.193Z,5.10
2023-04-12T02:04:38.033Z,8.10
2023-04-12T02:05:37.977Z,6.00
2023-04-12T02:06:37.989Z,6.10
2023-04-12T02:07:37.975Z,5.00
2023-04-12T02:08:38.031Z,5.80
2023-04-12T02:09:37.970Z,6.90
2023-04-12T02:10:37.961Z,6.30
2023-04-12T02:11:37.908Z,5.20
2023-04-12T02:12:37.915Z,4.80
2023-04-12T02:13:37.912Z,5.30
2023-04-12T02:14:37.917Z,5.30
2023-04-12T02:15:37.928Z,5.50
2023-04-12T02:16:38.003Z,6.30
2023-04-12T02:17:37.988Z,5.80
2023-04-12T02:18:37.884Z,6.70
2023-04-12T02:19:37.831Z,6.10
2023-04-12T02:20:37.865Z,8.40
2023-04-12T02:21:37.825Z,5.70
2023-04-12T02:22:37.841Z,5.60
2023-04-12T02:23:37.828Z,4.60
2023-04-12T02:24:37.789Z,4.50
2023-04-12T02:25:37.771Z,5.40
2023-04-12T02:26:37.803Z,5.60
2023-04-12T02:27:37.750Z,5.50
2023-04-12T02:28:37.761Z,6.70
2023-04-12T02:29:37.721Z,5.80
2023-04-12T02:30:37.797Z,4.90
2023-04-12T02:31:37.736Z,5.20
2023-04-12T02:32:37.793Z,4.50
2023-04-12T02:33:37.928Z,6.80
2023-04-12T02:34:37.727Z,7.30
2023-04-12T02:35:37.698Z,6.80
2023-04-12T02:36:38.008Z,8.10
2023-04-12T02:37:37.634Z,6.60
2023-04-12T02:38:37.644Z,4.40
2023-04-12T02:39:37.629Z,6.10
2023-04-12T02:40:37.638Z,6.20
2023-04-12T02:41:37.678Z,5.90
2023-04-12T02:42:37.581Z,4.80
2023-04-12T02:43:37.557Z,5.10
2023-04-12T02:44:37.576Z,5.10
2023-04-12T02:45:37.533Z,5.80
2023-04-12T02:46:37.778Z,9.40
2023-04-12T02:47:37.569Z,6.50
2023-04-12T02:48:37.508Z,5.20
2023-04-12T02:49:37.605Z,5.70
2023-04-12T02:50:37.505Z,5.50
2023-04-12T02:51:37.478Z,6.80
2023-04-12T02:52:37.474Z,7.10
2023-04-12T02:53:37.551Z,6.80
2023-04-12T02:54:37.483Z,4.40
2023-04-12T02:55:37.439Z,4.10
2023-04-12T02:56:37.406Z,6.80
2023-04-12T02:57:37.439Z,5.40
2023-04-12T02:58:37.414Z,4.80
2023-04-12T02:59:37.435Z,6.20
2023-04-12T03:00:37.396Z,6.40
2023-04-12T03:01:37.469Z,6.90
2023-04-12T03:02:37.521Z,6.60
2023-04-12T03:03:37.437Z,6.30
2023-04-12T03:04:37.317Z,5.90
2023-04-12T03:05:37.357Z,4.80
2023-04-12T03:06:37.328Z,7.50
2023-04-12T03:07:37.304Z,6.00
2023-04-12T03:08:37.282Z,5.20
2023-04-12T03:09:37.254Z,7.30
2023-04-12T03:10:37.283Z,6.00
2023-04-12T03:11:37.268Z,5.10
2023-04-12T03:12:37.224Z,5.80
2023-04-12T03:13:37.200Z,5.80
2023-04-12T03:14:37.219Z,6.50
2023-04-12T03:15:37.238Z,5.00
2023-04-12T03:16:37.196Z,8.50
2023-04-12T03:17:37.295Z,7.00
2023-04-12T03:18:37.155Z,6.90
2023-04-12T03:19:37.166Z,8.20
2023-04-12T03:20:37.144Z,5.40
2023-04-12T03:21:37.130Z,4.90
2023-04-12T03:22:37.125Z,7.80
2023-04-12T03:23:37.142Z,7.70
2023-04-12T03:24:37.084Z,5.70
2023-04-12T03:25:37.105Z,6.00
2023-04-12T03:26:37.076Z,8.20
2023-04-12T03:27:37.068Z,6.60
2023-04-12T03:28:37.099Z,7.30
2023-04-12T03:29:37.041Z,7.40
2023-04-12T03:30:37.058Z,5.80
2023-04-12T03:31:37.100Z,5.70
2023-04-12T03:32:37.070Z,5.90
2023-04-12T03:33:36.998Z,5.00
2023-04-12T03:34:36.993Z,5.30
2023-04-12T03:35:36.988Z,5.50
2023-04-12T03:36:36.959Z,6.90
2023-04-12T03:37:36.970Z,5.20
2023-04-12T03:38:36.938Z,8.00
2023-04-12T03:39:36.919Z,6.20
2023-04-12T03:40:36.931Z,6.10
2023-04-12T03:41:36.921Z,6.10
2023-04-12T03:42:36.884Z,7.00
2023-04-12T03:43:36.865Z,5.50
2023-04-12T03:44:36.925Z,5.50
2023-04-12T03:45:36.858Z,5.20
2023-04-12T03:46:36.903Z,7.60
2023-04-12T03:47:36.877Z,4.90
2023-04-12T03:48:36.825Z,6.70
2023-04-12T03:49:36.795Z,6.80
2023-04-12T03:50:36.849Z,6.50
2023-04-12T03:51:36.793Z,6.70
2023-04-12T03:52:36.848Z,7.30
2023-04-12T03:53:36.768Z,6.70
2023-04-12T03:54:36.768Z,5.40
2023-04-12T03:55:36.749Z,5.50
2023-04-12T03:56:36.750Z,6.80
2023-04-12T03:57:36.740Z,6.80
2023-04-12T03:58:36.687Z,5.10
2023-04-12T03:59:36.695Z,5.30
2023-04-12T04:00:36.670Z,5.50
2023-04-12T04:01:36.687Z,6.90
2023-04-12T04:02:36.900Z,5.90
2023-04-12T04:03:36.805Z,5.70
2023-04-12T04:04:36.899Z,6.90
2023-04-12T04:05:36.635Z,5.10
2023-04-12T04:06:36.645Z,4.40
2023-04-12T04:07:36.797Z,4.10
2023-04-12T04:08:36.590Z,6.40
2023-04-12T04:09:36.602Z,6.10
2023-04-12T04:10:36.551Z,7.00
2023-04-12T04:11:36.578Z,6.60
2023-04-12T04:12:36.553Z,6.80
2023-04-12T04:13:36.588Z,6.70
2023-04-12T04:14:36.528Z,5.50
2023-04-12T04:15:36.599Z,5.00
2023-04-12T04:16:36.522Z,6.70
2023-04-12T04:17:36.560Z,5.50
2023-04-12T04:18:36.557Z,4.70
2023-04-12T04:19:36.473Z,6.60
2023-04-12T04:20:36.497Z,6.10
2023-04-12T04:21:36.436Z,6.40
2023-04-12T04:22:36.502Z,5.10
2023-04-12T04:23:36.504Z,5.40
2023-04-12T04:24:36.397Z,6.70
2023-04-12T04:25:36.382Z,7.80
2023-04-12T04:26:36.371Z,7.70
2023-04-12T04:27:36.377Z,6.50
2023-04-12T04:28:36.419Z,6.50
2023-04-12T04:29:36.396Z,9.00
2023-04-12T04:30:36.333Z,7.70
2023-04-12T04:31:36.407Z,7.40
2023-04-12T04:32:36.370Z,6.10
2023-04-12T04:33:36.361Z,5.90
2023-04-12T04:34:36.287Z,5.70
2023-04-12T04:35:36.289Z,15.80
2023-04-12T04:36:36.266Z,8.40
2023-04-12T04:37:36.265Z,5.40
2023-04-12T04:38:36.322Z,7.30
2023-04-12T04:39:36.268Z,5.90
2023-04-12T04:40:36.263Z,5.40
2023-04-12T04:41:36.240Z,5.70
2023-04-12T04:42:36.208Z,5.20
2023-04-12T04:43:36.240Z,9.80
2023-04-12T04:44:36.273Z,6.00
2023-04-12T04:45:36.323Z,5.70
2023-04-12T04:46:36.174Z,5.90
2023-04-12T04:47:36.136Z,6.40
2023-04-12T04:48:36.171Z,6.30
2023-04-12T04:49:36.206Z,6.90
2023-04-12T04:50:36.181Z,6.60
2023-04-12T04:51:36.134Z,5.90
2023-04-12T04:52:36.104Z,5.90
2023-04-12T04:53:36.160Z,5.40
2023-04-12T04:54:36.076Z,7.20
2023-04-12T04:55:36.109Z,7.20
2023-04-12T04:56:36.079Z,9.40
2023-04-12T04:57:36.088Z,7.70
2023-04-12T04:58:36.017Z,5.90
2023-04-12T04:59:36.011Z,9.70
2023-04-12T05:00:36.151Z,8.80
2023-04-12T05:01:36.142Z,5.80
2023-04-12T05:02:36.093Z,6.60
2023-04-12T05:03:36.074Z,9.10
2023-04-12T05:04:35.960Z,7.40
2023-04-12T05:05:35.937Z,8.60
2023-04-12T05:06:35.932Z,8.00
2023-04-12T05:07:35.929Z,6.20
2023-04-12T05:08:35.945Z,7.30
2023-04-12T05:09:35.878Z,8.00
2023-04-12T05:10:35.900Z,8.90
2023-04-12T05:11:35.906Z,7.00
2023-04-12T05:12:35.876Z,9.80
2023-04-12T05:13:35.878Z,7.10
2023-04-12T05:14:45.938Z,10.60
2023-04-12T05:15:36.912Z,7.00
2023-04-12T05:16:35.841Z,5.00
2023-04-12T05:17:35.845Z,5.30
2023-04-12T05:18:35.811Z,6.50
2023-04-12T05:19:35.818Z,7.80
2023-04-12T05:20:35.763Z,8.30
2023-04-12T05:21:35.762Z,6.50
2023-04-12T05:22:35.764Z,6.40
2023-04-12T05:23:35.723Z,7.40
2023-04-12T05:24:35.761Z,7.90
2023-04-12T05:25:35.783Z,8.20
2023-04-12T05:26:35.697Z,9.90
2023-04-12T05:27:35.684Z,9.10
2023-04-12T05:28:35.672Z,9.90
2023-04-12T05:29:35.682Z,8.50
2023-04-12T05:30:35.715Z,6.80
2023-04-12T05:31:35.824Z,7.80
2023-04-12T05:32:35.710Z,7.40
2023-04-12T05:33:35.594Z,7.50
2023-04-12T05:34:35.632Z,6.80
2023-04-12T05:35:35.659Z,8.60
2023-04-12T05:36:35.597Z,8.40
2023-04-12T05:37:35.602Z,10.10
2023-04-12T05:38:35.579Z,9.70
2023-04-12T05:39:35.583Z,9.70
2023-04-12T05:40:35.539Z,8.80
2023-04-12T05:41:35.603Z,11.40
2023-04-12T05:42:35.527Z,14.40
2023-04-12T05:43:35.514Z,10.20
2023-04-12T05:44:35.473Z,8.60
2023-04-12T05:45:35.507Z,11.20
2023-04-12T05:46:35.514Z,10.40
2023-04-12T05:47:35.494Z,12.90
2023-04-12T05:48:35.429Z,9.60
2023-04-12T05:49:35.465Z,8.50
2023-04-12T05:50:35.469Z,8.90
2023-04-12T05:51:41.261Z,9.40
2023-04-12T05:52:36.570Z,10.80
2023-04-12T05:53:35.431Z,10.00
2023-04-12T05:54:35.409Z,11.30
2023-04-12T05:55:37.795Z,12.10
2023-04-12T05:56:35.326Z,14.30
2023-04-12T05:57:35.346Z,13.50
2023-04-12T05:58:35.367Z,16.90
2023-04-12T05:59:35.308Z,13.50
2023-04-12T06:00:35.279Z,17.70
2023-04-12T06:01:35.285Z,12.50
2023-04-12T06:02:35.505Z,11.20
2023-04-12T06:03:35.353Z,12.40
2023-04-12T06:05:36.348Z,9.70
2023-04-12T06:06:35.242Z,8.60
2023-04-12T06:07:35.295Z,10.70
2023-04-12T06:08:36.577Z,13.00
2023-04-12T06:09:35.243Z,12.30
2023-04-12T06:10:35.198Z,11.60
2023-04-12T06:11:35.164Z,9.40
2023-04-12T06:12:35.178Z,11.60
2023-04-12T06:13:35.152Z,12.50
2023-04-12T06:14:35.120Z,16.10
2023-04-12T06:15:35.180Z,14.20
2023-04-12T06:16:35.204Z,10.50
2023-04-12T06:17:35.106Z,12.50
2023-04-12T06:18:35.134Z,8.10
2023-04-12T06:19:35.101Z,11.90
2023-04-12T06:20:35.070Z,9.70
2023-04-12T06:21:35.053Z,10.00
2023-04-12T06:22:35.048Z,10.50
2023-04-12T06:23:35.036Z,10.10
2023-04-12T06:24:35.042Z,8.90
2023-04-12T06:25:35.029Z,8.70
2023-04-12T06:26:39.776Z,10.00
2023-04-12T06:27:36.012Z,9.10
2023-04-12T06:28:34.955Z,13.00
2023-04-12T06:29:35.006Z,11.00
2023-04-12T06:30:34.935Z,8.60
2023-04-12T06:31:35.099Z,9.30
2023-04-12T06:32:34.944Z,10.60
2023-04-12T06:33:34.914Z,10.10
2023-04-12T06:34:35.031Z,11.60
2023-04-12T06:35:34.932Z,10.10
2023-04-12T06:36:34.961Z,11.20
2023-04-12T06:37:34.862Z,9.40
2023-04-12T06:38:34.865Z,12.30
2023-04-12T06:39:34.850Z,8.30
2023-04-12T06:40:34.884Z,8.40
2023-04-12T06:41:34.809Z,10.20
2023-04-12T06:42:34.846Z,10.00
2023-04-12T06:43:34.776Z,9.80
2023-04-12T06:44:34.790Z,10.40
2023-04-12T06:45:34.830Z,9.30
2023-04-12T06:46:34.851Z,8.40
2023-04-12T06:47:34.799Z,9.70
2023-04-12T06:48:34.722Z,9.30
2023-04-12T06:49:34.721Z,10.90
2023-04-12T06:50:34.754Z,9.50
2023-04-12T06:51:34.713Z,11.60
2023-04-12T06:52:34.688Z,7.60
2023-04-12T06:53:34.695Z,10.40
2023-04-12T06:54:34.715Z,7.20
2023-04-12T06:55:34.649Z,7.20
2023-04-12T06:56:34.661Z,8.60
2023-04-12T06:57:34.622Z,9.90
2023-04-12T06:58:34.634Z,8.20
2023-04-12T06:59:34.630Z,9.10
2023-04-12T07:00:34.646Z,8.30
2023-04-12T07:01:34.620Z,5.90
2023-04-12T07:02:34.819Z,7.50
2023-04-12T07:03:34.610Z,5.70
2023-04-12T07:04:34.561Z,5.20
2023-04-12T07:05:34.595Z,6.20
2023-04-12T07:06:34.529Z,5.60
2023-04-12T07:07:34.528Z,5.70
2023-04-12T07:08:34.491Z,5.60
2023-04-12T07:09:34.544Z,4.80
2023-04-12T07:10:34.495Z,4.80
2023-04-12T07:11:34.516Z,9.10
2023-04-12T07:12:34.467Z,6.20
2023-04-12T07:13:34.445Z,5.30
2023-04-12T07:14:34.446Z,4.40
2023-04-12T07:15:34.409Z,3.80
2023-04-12T07:16:34.541Z,4.60
2023-04-12T07:17:34.512Z,4.90
2023-04-12T07:18:34.385Z,5.80
2023-04-12T07:19:34.379Z,4.40
2023-04-12T07:20:34.384Z,5.60
2023-04-12T07:21:34.388Z,6.70
2023-04-12T07:22:34.387Z,6.50
2023-04-12T07:23:34.342Z,6.60
2023-04-12T07:24:34.428Z,4.50
2023-04-12T07:25:34.310Z,5.40
2023-04-12T07:26:34.337Z,5.50
2023-04-12T07:27:34.341Z,4.10
2023-04-12T07:28:34.283Z,5.90
2023-04-12T07:29:34.260Z,5.80
2023-04-12T07:30:34.276Z,6.30
2023-04-12T07:31:34.287Z,5.80
2023-04-12T07:32:34.295Z,4.80
2023-04-12T07:33:34.356Z,5.50
2023-04-12T07:34:34.210Z,4.20
2023-04-12T07:35:34.244Z,5.40
2023-04-12T07:36:34.223Z,4.20
2023-04-12T07:37:34.168Z,5.60
2023-04-12T07:38:34.182Z,5.20
2023-04-12T07:39:34.265Z,5.70
2023-04-12T07:40:34.130Z,3.80
2023-04-12T07:41:34.129Z,4.60
2023-04-12T07:42:34.140Z,6.40
2023-04-12T07:43:34.098Z,7.20
2023-04-12T07:44:36.444Z,6.60
2023-04-12T07:45:34.173Z,5.50
2023-04-12T07:46:34.203Z,6.40
2023-04-12T07:47:34.080Z,5.40
2023-04-12T07:48:34.118Z,5.50
2023-04-12T07:49:34.030Z,5.30
2023-04-12T07:50:34.044Z,5.80
2023-04-12T07:51:34.028Z,4.70
2023-04-12T07:52:34.001Z,5.80
2023-04-12T07:53:34.029Z,7.70
2023-04-12T07:54:34.016Z,4.40
2023-04-12T07:55:33.972Z,5.40
2023-04-12T07:56:33.979Z,4.70
2023-04-12T07:57:34.311Z,4.60
2023-04-12T07:58:33.937Z,5.00
2023-04-12T07:59:33.912Z,7.60
2023-04-12T08:00:33.926Z,6.60
2023-04-12T08:01:33.913Z,5.20
2023-04-12T08:02:34.111Z,4.90
2023-04-12T08:03:33.937Z,4.20
2023-04-12T08:04:33.883Z,4.50
2023-04-12T08:05:33.891Z,4.00
2023-04-12T08:06:34.514Z,4.40
2023-04-12T08:07:33.840Z,5.40
2023-04-12T08:08:33.832Z,5.60
2023-04-12T08:09:33.820Z,5.00
2023-04-12T08:10:33.810Z,4.10
2023-04-12T08:11:33.825Z,4.70
2023-04-12T08:12:33.789Z,5.10
2023-04-12T08:13:33.838Z,5.20
2023-04-12T08:14:33.766Z,4.60
2023-04-12T08:15:33.847Z,6.60
2023-04-12T08:16:33.762Z,6.50
2023-04-12T08:17:33.799Z,4.80
2023-04-12T08:18:33.724Z,5.30
2023-04-12T08:19:33.730Z,5.10
2023-04-12T08:20:33.689Z,6.70
2023-04-12T08:21:33.715Z,6.60
2023-04-12T08:22:33.696Z,5.50
2023-04-12T08:23:33.669Z,6.30
2023-04-12T08:24:33.655Z,6.20
2023-04-12T08:25:33.633Z,5.30
2023-04-12T08:26:33.626Z,6.30
2023-04-12T08:27:33.646Z,6.30
2023-04-12T08:28:33.615Z,5.10
2023-04-12T08:29:33.598Z,3.70
2023-04-12T08:30:33.578Z,4.70
2023-04-12T08:31:33.614Z,4.40
2023-04-12T08:32:33.654Z,5.00
2023-04-12T08:33:33.568Z,6.40
2023-04-12T08:34:33.523Z,4.00
2023-04-12T08:35:33.585Z,5.80
2023-04-12T08:36:33.503Z,5.00
2023-04-12T08:37:33.524Z,4.90
2023-04-12T08:39:33.516Z,5.20
2023-04-12T08:40:33.486Z,5.00
2023-04-12T08:41:33.469Z,6.70
2023-04-12T08:42:33.437Z,8.10
2023-04-12T08:43:33.454Z,4.50
2023-04-12T08:44:33.455Z,5.10
2023-04-12T08:45:33.449Z,3.50
2023-04-12T08:46:33.434Z,4.60
2023-04-12T08:47:33.412Z,5.80
2023-04-12T08:48:33.402Z,5.70
2023-04-12T08:49:33.375Z,5.10
2023-04-12T08:50:33.390Z,6.50
2023-04-12T08:51:33.378Z,5.00
2023-04-12T08:52:33.351Z,5.10
2023-04-12T08:53:33.327Z,5.50
2023-04-12T08:54:33.305Z,6.20
2023-04-12T08:55:33.278Z,4.50
2023-04-12T08:56:33.369Z,5.90
2023-04-12T08:57:33.287Z,5.10
2023-04-12T08:58:33.345Z,3.10
2023-04-12T08:59:33.240Z,5.40
2023-04-12T09:00:33.258Z,4.10
2023-04-12T09:01:33.288Z,5.10
2023-04-12T09:02:33.341Z,5.50
2023-04-12T09:03:33.961Z,3.80
2023-04-12T09:04:33.299Z,3.50
2023-04-12T09:05:33.182Z,4.60
2023-04-12T09:06:33.184Z,6.40
2023-04-12T09:07:33.167Z,7.20
2023-04-12T09:08:33.157Z,4.40
2023-04-12T09:09:33.196Z,5.30
2023-04-12T09:10:33.111Z,5.40
2023-04-12T09:11:33.115Z,6.40
2023-04-12T09:12:33.136Z,8.70
2023-04-12T09:13:33.099Z,5.40
2023-04-12T09:14:33.097Z,5.80
2023-04-12T09:15:33.054Z,3.80
2023-04-12T09:16:33.071Z,3.80
2023-04-12T09:17:33.103Z,4.40
2023-04-12T09:18:33.066Z,6.60
2023-04-12T09:19:33.045Z,3.90
2023-04-12T09:20:33.060Z,3.90
2023-04-12T09:21:33.012Z,4.90
2023-04-12T09:22:33.013Z,4.50
2023-04-12T09:23:33.005Z,4.20
2023-04-12T09:24:32.957Z,4.20
2023-04-12T09:25:32.985Z,5.50
2023-04-12T09:26:32.938Z,3.70
2023-04-12T09:27:32.918Z,4.40
2023-04-12T09:28:32.993Z,3.60
2023-04-12T09:29:32.938Z,5.00
2023-04-12T09:30:32.929Z,4.80
2023-04-12T09:31:32.944Z,3.70
2023-04-12T09:32:32.958Z,2.70
2023-04-12T09:33:32.878Z,3.70
2023-04-12T09:34:32.882Z,4.70
2023-04-12T09:35:32.852Z,4.60
2023-04-12T09:36:32.865Z,4.20
2023-04-12T09:37:32.860Z,4.80
2023-04-12T09:38:32.830Z,3.70
2023-04-12T09:39:32.839Z,6.10
2023-04-12T09:40:32.797Z,3.70
2023-04-12T09:41:32.773Z,4.70
2023-04-12T09:42:34.488Z,4.80
2023-04-12T09:43:32.781Z,4.10
2023-04-12T09:44:32.748Z,2.90
2023-04-12T09:45:32.744Z,4.00
2023-04-12T09:46:32.735Z,3.70
2023-04-12T09:47:32.769Z,4.40
2023-04-12T09:48:32.737Z,4.90
2023-04-12T09:49:32.663Z,4.60
2023-04-12T09:50:32.710Z,3.80
2023-04-12T09:51:32.806Z,4.70
2023-04-12T09:52:32.662Z,3.80
2023-04-12T09:53:32.647Z,4.80
2023-04-12T09:54:32.655Z,3.20
2023-04-12T09:55:32.967Z,3.20
2023-04-12T09:56:32.674Z,3.10
2023-04-12T09:57:32.616Z,4.80
2023-04-12T09:58:32.656Z,3.70
2023-04-12T09:59:32.594Z,4.10
2023-04-12T10:00:32.584Z,4.90
2023-04-12T10:01:32.633Z,3.80
2023-04-12T10:02:32.747Z,3.00
2023-04-12T10:03:32.691Z,4.60
2023-04-12T10:04:32.613Z,6.10
2023-04-12T10:05:32.657Z,5.90
2023-04-12T10:06:32.474Z,3.70
2023-04-12T10:07:32.497Z,3.10
2023-04-12T10:08:32.516Z,5.00
2023-04-12T10:09:32.484Z,5.30
2023-04-12T10:10:32.485Z,5.60
2023-04-12T10:11:32.496Z,6.10
2023-04-12T10:12:32.414Z,3.80
2023-04-12T10:13:32.430Z,3.60
2023-04-12T10:14:32.427Z,4.60
2023-04-12T10:15:32.404Z,3.20
2023-04-12T10:16:32.480Z,4.40
2023-04-12T10:17:32.425Z,3.00
2023-04-12T10:18:32.385Z,3.50
2023-04-12T10:19:32.387Z,2.70
2023-04-12T10:20:32.359Z,3.70
2023-04-12T10:21:32.353Z,3.40
2023-04-12T10:22:32.322Z,2.90
2023-04-12T10:23:32.305Z,3.30
2023-04-12T10:24:32.315Z,2.60
2023-04-12T10:25:32.297Z,3.90
2023-04-12T10:26:32.276Z,4.70
2023-04-12T10:27:32.292Z,5.70
2023-04-12T10:28:32.278Z,4.50
2023-04-12T10:29:32.267Z,3.40
2023-04-12T10:30:32.266Z,2.20
2023-04-12T10:31:32.373Z,2.60
2023-04-12T10:32:34.789Z,4.10
2023-04-12T10:33:32.159Z,9.50
2023-04-12T10:34:32.204Z,4.60
2023-04-12T10:35:32.226Z,4.10
2023-04-12T10:36:32.230Z,6.30
2023-04-12T10:37:32.145Z,2.30
2023-04-12T10:38:35.258Z,4.00
2023-04-12T10:39:32.136Z,3.20
2023-04-12T10:40:32.176Z,2.60
2023-04-12T10:41:32.114Z,2.40
2023-04-12T10:42:32.107Z,2.60
2023-04-12T10:43:32.087Z,3.20
2023-04-12T10:44:32.119Z,2.20
2023-04-12T10:45:32.056Z,2.60
2023-04-12T10:46:32.159Z,3.30
2023-04-12T10:47:32.100Z,2.00
2023-04-12T10:48:32.055Z,1.90
2023-04-12T10:49:32.023Z,2.80
2023-04-12T10:50:32.050Z,2.70
2023-04-12T10:51:32.128Z,2.30
2023-04-12T10:52:32.025Z,2.50
2023-04-12T10:53:32.021Z,2.30
2023-04-12T10:54:32.005Z,2.90
2023-04-12T10:55:31.925Z,2.40
2023-04-12T10:56:32.657Z,1.80
2023-04-12T10:57:31.958Z,2.30
2023-04-12T10:58:31.918Z,3.20
2023-04-12T10:59:44.876Z,3.50
2023-04-12T11:00:32.931Z,3.80
2023-04-12T11:01:31.972Z,2.80
2023-04-12T11:02:32.047Z,2.20
2023-04-12T11:03:32.007Z,3.10
2023-04-12T11:04:31.958Z,2.10
2023-04-12T11:05:31.894Z,4.20
2023-04-12T11:06:31.820Z,2.90
2023-04-12T11:07:31.810Z,2.90
2023-04-12T11:08:31.807Z,3.00
2023-04-12T11:09:31.807Z,3.40
2023-04-12T11:10:31.745Z,2.30
2023-04-12T11:11:31.768Z,5.80
2023-04-12T11:12:31.776Z,3.10
2023-04-12T11:13:31.717Z,3.60
2023-04-12T11:14:31.749Z,2.60
2023-04-12T11:15:31.695Z,3.50
2023-04-12T11:16:31.716Z,3.40
2023-04-12T11:17:31.729Z,2.40
2023-04-12T11:18:31.699Z,2.90
2023-04-12T11:19:31.669Z,3.20
2023-04-12T11:20:31.704Z,4.00
2023-04-12T11:21:31.639Z,3.00
2023-04-12T11:22:31.666Z,3.60
2023-04-12T11:23:31.663Z,3.00
2023-04-12T11:24:31.623Z,3.10
2023-04-12T11:25:31.667Z,2.20
2023-04-12T11:26:31.597Z,3.00
2023-04-12T11:27:31.568Z,3.40
2023-04-12T11:28:33.931Z,4.10
2023-04-12T11:29:31.565Z,4.00
2023-04-12T11:30:31.591Z,2.10
2023-04-12T11:31:31.573Z,1.60
2023-04-12T11:32:31.629Z,2.80
2023-04-12T11:33:31.507Z,2.70
2023-04-12T11:34:31.499Z,3.20
2023-04-12T11:35:31.470Z,2.60
2023-04-12T11:36:31.475Z,3.40
2023-04-12T11:37:31.524Z,3.40
2023-04-12T11:38:31.442Z,3.40
2023-04-12T11:39:32.861Z,2.90
2023-04-12T11:40:31.444Z,2.40
2023-04-12T11:41:31.424Z,3.60
2023-04-12T11:42:31.414Z,3.20
2023-04-12T11:43:31.416Z,3.40
2023-04-12T11:44:40.757Z,2.70
2023-04-12T11:45:32.369Z,2.40
2023-04-12T11:46:31.366Z,2.90
2023-04-12T11:47:31.403Z,2.50
2023-04-12T11:48:31.359Z,3.60
2023-04-12T11:49:31.334Z,2.70
2023-04-12T11:50:31.624Z,4.30
2023-04-12T11:51:32.620Z,3.40
2023-04-12T11:52:31.300Z,3.30
2023-04-12T11:53:31.320Z,2.80
2023-04-12T11:54:31.241Z,3.90
2023-04-12T11:55:31.294Z,2.80
2023-04-12T11:56:31.239Z,2.30
2023-04-12T11:57:31.323Z,2.90
2023-04-12T11:58:31.267Z,2.30
2023-04-12T11:59:31.199Z,1.90
2023-04-12T12:00:31.185Z,2.90
2023-04-12T12:01:31.220Z,3.80
2023-04-12T12:02:35.771Z,2.40
2023-04-12T12:03:32.418Z,3.00
2023-04-12T12:04:31.358Z,2.20
2023-04-12T12:05:31.199Z,1.90
2023-04-12T12:06:31.538Z,1.80
2023-04-12T12:07:31.604Z,1.70
2023-04-12T12:08:31.108Z,3.10
2023-04-12T12:09:31.108Z,2.80
2023-04-12T12:10:43.546Z,2.10
2023-04-12T12:11:32.085Z,2.30
2023-04-12T12:12:31.080Z,2.10
2023-04-12T12:13:31.045Z,2.30
2023-04-12T12:14:31.047Z,1.40
2023-04-12T12:15:31.081Z,2.60
2023-04-12T12:16:31.128Z,1.70
2023-04-12T12:17:31.053Z,2.10
2023-04-12T12:18:31.008Z,1.40
2023-04-12T12:19:30.973Z,1.90
2023-04-12T12:20:31.001Z,1.90
2023-04-12T12:21:30.976Z,1.30
2023-04-12T12:22:30.974Z,2.50
2023-04-12T12:23:30.963Z,1.80
2023-04-12T12:24:30.929Z,1.10
2023-04-12T12:25:30.969Z,2.60
2023-04-12T12:26:30.959Z,2.60
2023-04-12T12:27:31.039Z,1.50
2023-04-12T12:28:30.867Z,2.50
2023-04-12T12:29:30.857Z,2.10
2023-04-12T12:30:30.910Z,2.60
2023-04-12T12:31:30.927Z,1.90
2023-04-12T12:32:30.825Z,1.50
2023-04-12T12:34:30.827Z,1.70
2023-04-12T12:35:30.849Z,2.00
2023-04-12T12:36:30.812Z,1.50
2023-04-12T12:37:30.785Z,1.60
2023-04-12T12:38:32.606Z,1.30
2023-04-12T12:39:30.754Z,1.70
2023-04-12T12:40:30.760Z,2.00
2023-04-12T12:41:30.785Z,1.50
2023-04-12T12:42:30.742Z,2.30
2023-04-12T12:43:30.725Z,1.30
2023-04-12T12:44:30.692Z,1.60
2023-04-12T12:45:30.705Z,1.50
2023-04-12T12:46:44.508Z,1.30
2023-04-12T12:47:31.776Z,1.50
2023-04-12T12:48:30.722Z,2.00
2023-04-12T12:49:30.687Z,1.50
2023-04-12T12:50:30.623Z,1.60
2023-04-12T12:51:30.613Z,0.80
2023-04-12T12:52:30.684Z,1.60
2023-04-12T12:53:30.648Z,1.70
2023-04-12T12:54:40.072Z,1.60
2023-04-12T12:55:31.574Z,1.40
2023-04-12T12:56:30.552Z,2.80
2023-04-12T12:57:30.535Z,1.30
2023-04-12T12:58:30.576Z,1.20
2023-04-12T12:59:30.542Z,2.20
2023-04-12T13:00:30.530Z,1.50
2023-04-12T13:01:30.528Z,1.70
2023-04-12T13:02:30.631Z,2.30
2023-04-12T13:03:30.652Z,0.80
2023-04-12T13:04:30.586Z,1.40
2023-04-12T13:05:30.474Z,2.00
2023-04-12T13:06:30.453Z,1.10
2023-04-12T13:07:30.449Z,2.20
2023-04-12T13:08:30.464Z,2.10
2023-04-12T13:09:30.449Z,1.60
2023-04-12T13:10:30.401Z,1.40
2023-04-12T13:11:30.428Z,2.30
2023-04-12T13:12:30.374Z,1.60
2023-04-12T13:13:30.400Z,1.80
2023-04-12T13:14:30.352Z,1.70
2023-04-12T13:15:30.346Z,1.10
2023-04-12T13:16:30.424Z,1.40
2023-04-12T13:17:30.393Z,1.80
2023-04-12T13:18:30.360Z,1.30
2023-04-12T13:19:30.327Z,3.00